Time;durP1;ratioP1;P1;durP2;ratioP2;P2;SDS_P1;SDS_P2;PMS_P1;PMS_P2;Temp;Humidity;BMP_temperature;BMP_pressure;BME280_temperature;BME280_humidity;BME280_pressure;Samples;Min_cycle;Max_cycle;Signal;HPM_P1;HPM_P2
2022/03/29 00:01:35;;;;;;;23.48;15.80;;;;;;;9.79;62.50;100310.91;4994425;28;20058;-52
2022/03/29 00:04:03;;;;;;;19.92;14.40;;;;;;;9.81;62.57;100300.28;4995521;28;20073;-53
2022/03/29 00:06:31;;;;;;;22.00;14.52;;;;;;;9.85;62.28;100300.44;4998215;28;20053;-51
2022/03/29 00:08:59;;;;;;;20.38;14.48;;;;;;;9.85;62.28;100306.03;4997299;28;20419;-52
2022/03/29 00:11:26;;;;;;;22.65;15.20;;;;;;;9.87;62.35;100298.19;5003218;28;20061;-53
2022/03/29 00:13:54;;;;;;;21.40;14.18;;;;;;;9.89;62.13;100282.00;5013645;28;20060;-51
2022/03/29 00:16:21;;;;;;;24.90;16.02;;;;;;;9.88;62.37;100289.53;4998196;28;20061;-52
2022/03/29 00:18:49;;;;;;;23.88;15.27;;;;;;;9.87;62.86;100289.84;4993659;28;20054;-52
2022/03/29 00:21:16;;;;;;;22.48;14.88;;;;;;;9.88;62.21;100285.94;4999919;28;20062;-52
2022/03/29 00:23:45;;;;;;;21.30;14.48;;;;;;;9.86;62.85;100277.91;4993805;28;20061;-51
2022/03/29 00:26:12;;;;;;;20.85;14.45;;;;;;;9.88;62.23;100280.38;5004313;28;20050;-54
2022/03/29 00:28:39;;;;;;;22.30;15.32;;;;;;;9.85;62.08;100273.47;5011925;28;20053;-52
2022/03/29 00:31:07;;;;;;;20.88;15.05;;;;;;;9.86;61.79;100277.91;5013076;28;20061;-54
2022/03/29 00:33:34;;;;;;;20.33;15.00;;;;;;;9.82;62.07;100278.84;5012857;28;20054;-50
2022/03/29 00:36:02;;;;;;;22.15;15.40;;;;;;;9.78;62.38;100275.84;5012286;28;20054;-50
2022/03/29 00:38:29;;;;;;;23.25;15.60;;;;;;;9.72;61.97;100275.16;5013453;28;20046;-51
2022/03/29 00:40:59;;;;;;;26.10;17.98;;;;;;;9.68;62.42;100271.38;5012634;28;20069;-53
2022/03/29 00:43:27;;;;;;;23.70;16.73;;;;;;;9.67;62.64;100266.94;4997376;28;20055;-50
2022/03/29 00:45:55;;;;;;;25.92;17.33;;;;;;;9.64;62.53;100264.78;4993663;28;20054;-53
2022/03/29 00:48:23;;;;;;;29.05;17.95;;;;;;;9.61;62.49;100254.28;4995082;28;20091;-53
2022/03/29 00:50:52;;;;;;;24.10;17.27;;;;;;;9.54;63.03;100262.25;5005731;28;20513;-54
2022/03/29 00:53:20;;;;;;;24.17;16.95;;;;;;;9.54;63.02;100256.69;5012654;28;20061;-53
2022/03/29 00:55:48;;;;;;;27.33;18.00;;;;;;;9.50;63.58;100258.44;5012669;28;20053;-55
2022/03/29 00:58:18;;;;;;;26.83;17.33;;;;;;;9.47;62.94;100254.34;5004448;28;20050;-53
2022/03/29 01:00:47;;;;;;;27.35;18.00;;;;;;;9.41;63.29;100250.03;4992891;28;20054;-53
2022/03/29 01:03:16;;;;;;;23.95;16.20;;;;;;;9.38;63.41;100255.38;4993274;28;20061;-53
2022/03/29 01:05:43;;;;;;;23.02;15.85;;;;;;;9.35;63.22;100248.47;5006063;28;20382;-52
2022/03/29 01:08:11;;;;;;;24.30;15.68;;;;;;;9.31;63.54;100250.25;5002783;28;20050;-50
2022/03/29 01:10:39;;;;;;;25.17;16.38;;;;;;;9.21;63.16;100247.69;4993124;28;20065;-52
2022/03/29 01:13:07;;;;;;;24.85;16.42;;;;;;;9.23;63.11;100253.75;5006819;28;20054;-53
2022/03/29 01:15:38;;;;;;;25.52;16.13;;;;;;;9.18;63.18;100251.09;5012292;28;20064;-52
2022/03/29 01:18:05;;;;;;;26.50;15.93;;;;;;;9.12;64.08;100242.84;5012541;28;20054;-53
2022/03/29 01:20:33;;;;;;;22.02;15.40;;;;;;;9.12;63.91;100247.59;5011481;28;20065;-54
2022/03/29 01:23:02;;;;;;;22.85;15.45;;;;;;;9.13;63.81;100238.09;5004047;28;20054;-52
2022/03/29 01:25:34;;;;;;;24.20;15.50;;;;;;;9.15;63.75;100241.41;4993293;28;20057;-53
2022/03/29 01:28:03;;;;;;;24.38;15.68;;;;;;;9.15;64.07;100238.63;4994199;28;20057;-55
2022/03/29 01:30:31;;;;;;;23.10;15.65;;;;;;;9.19;64.10;100242.44;5003038;28;20058;-50
2022/03/29 01:33:01;;;;;;;24.50;16.58;;;;;;;9.23;64.50;100235.13;5010797;28;20046;-52
2022/03/29 01:35:30;;;;;;;22.48;15.25;;;;;;;9.25;64.16;100235.63;5012065;28;20053;-52
2022/03/29 01:37:58;;;;;;;25.80;16.60;;;;;;;9.29;64.26;100224.72;5002621;28;20057;-50
2022/03/29 01:40:27;;;;;;;20.67;14.25;;;;;;;9.32;64.21;100229.63;4992926;28;20065;-53
2022/03/29 01:42:56;;;;;;;25.80;16.13;;;;;;;9.39;64.32;100227.28;5000054;28;20075;-53
2022/03/29 01:45:26;;;;;;;24.87;16.73;;;;;;;9.43;63.87;100221.88;4995007;28;20058;-50
2022/03/29 01:47:54;;;;;;;;;;;;;;;9.44;64.18;100220.75;4994301;28;20496;-51
2022/03/29 01:50:22;;;;;;;23.95;16.08;;;;;;;9.43;64.04;100225.50;5001161;28;20362;-53
2022/03/29 01:52:50;;;;;;;23.48;14.93;;;;;;;9.45;63.42;100217.69;5012061;28;20410;-53
2022/03/29 01:55:18;;;;;;;23.00;15.18;;;;;;;9.46;63.77;100210.97;4998421;28;20062;-51
2022/03/29 01:57:48;;;;;;;19.05;15.32;;;;;;;9.49;63.61;100212.28;4992932;28;20378;-51
2022/03/29 02:00:33;;;;;;;21.02;15.52;;;;;;;9.52;63.28;100208.91;5009299;28;20422;-51
2022/03/29 02:03:02;;;;;;;21.70;15.27;;;;;;;9.53;63.35;100203.03;4992800;28;20050;-55
2022/03/29 02:05:32;;;;;;;21.13;15.50;;;;;;;9.55;63.38;100197.13;4994616;28;20073;-50
2022/03/29 02:08:00;;;;;;;23.52;15.25;;;;;;;9.58;63.49;100212.41;5004006;28;20068;-53
2022/03/29 02:10:28;;;;;;;19.35;14.90;;;;;;;9.60;63.46;100204.56;5012118;28;20410;-51
2022/03/29 02:12:57;;;;;;;25.00;16.45;;;;;;;9.61;63.20;100200.63;5012016;28;20060;-53
2022/03/29 02:15:25;;;;;;;22.95;16.45;;;;;;;9.62;63.77;100200.31;5012541;28;20058;-52
2022/03/29 02:17:52;;;;;;;23.00;15.95;;;;;;;9.64;63.33;100202.75;5015635;28;20052;-51
2022/03/29 02:20:22;;;;;;;23.05;16.63;;;;;;;9.65;63.53;100204.44;5015003;28;20061;-53
2022/03/29 02:22:51;;;;;;;25.23;16.98;;;;;;;9.66;63.67;100195.78;5009671;28;20407;-51
2022/03/29 02:25:18;;;;;;;22.80;16.15;;;;;;;9.68;63.82;100199.06;4996407;28;20506;-50
2022/03/29 02:27:47;;;;;;;22.15;14.80;;;;;;;9.70;63.51;100194.00;4997672;28;20057;-53
2022/03/29 02:30:18;;;;;;;20.95;14.93;;;;;;;9.71;63.24;100192.84;4996465;28;20062;-55
2022/03/29 02:32:45;;;;;;;24.55;16.10;;;;;;;9.72;63.45;100188.94;4997456;28;20419;-51
2022/03/29 02:35:13;;;;;;;22.25;15.88;;;;;;;9.76;63.32;100186.34;5015100;28;20061;-51
2022/03/29 02:37:41;;;;;;;21.40;16.08;;;;;;;9.79;63.26;100184.91;5015481;28;20045;-51
2022/03/29 02:40:10;;;;;;;24.35;17.48;;;;;;;9.75;63.56;100185.53;5007920;28;20049;-55
2022/03/29 02:42:41;;;;;;;23.80;17.60;;;;;;;9.74;63.22;100174.72;4996192;28;20069;-52
2022/03/29 02:45:12;;;;;;;26.60;17.08;;;;;;;9.74;63.17;100183.06;5010054;28;20413;-51
2022/03/29 02:47:41;;;;;;;25.77;18.63;;;;;;;9.74;63.56;100174.72;5009164;28;20070;-56
2022/03/29 02:50:10;;;;;;;27.27;18.70;;;;;;;9.72;63.99;100169.47;5007536;28;20045;-50
2022/03/29 02:52:47;;;;;;;22.73;15.90;;;;;;;9.72;63.31;100171.41;5015905;28;20064;-50
2022/03/29 02:55:15;;;;;;;26.63;17.20;;;;;;;9.68;63.47;100156.50;5014612;28;20053;-52
2022/03/29 02:57:42;;;;;;;25.88;16.25;;;;;;;9.71;63.92;100165.03;4997381;28;20056;-50
2022/03/29 03:00:15;;;;;;;28.02;17.73;;;;;;;9.72;63.56;100149.19;5013489;28;20057;-51
2022/03/29 03:02:44;;;;;;;26.00;17.27;;;;;;;9.74;64.02;100161.66;5014920;28;20383;-50
2022/03/29 03:05:12;;;;;;;24.17;17.42;;;;;;;9.74;64.10;100164.44;5014668;28;20499;-51
2022/03/29 03:07:40;;;;;;;25.30;16.98;;;;;;;9.75;63.93;100160.50;5015257;28;20052;-51
2022/03/29 03:10:08;;;;;;;23.50;16.58;;;;;;;9.77;63.88;100153.81;5014958;28;20085;-53
2022/03/29 03:12:37;;;;;;;25.17;18.00;;;;;;;9.81;64.18;100160.38;5015153;28;20054;-51
2022/03/29 03:15:06;;;;;;;24.55;17.38;;;;;;;9.83;63.57;100149.75;5015189;28;20042;-53
2022/03/29 03:17:33;;;;;;;24.67;17.45;;;;;;;9.84;63.79;100151.38;5015108;28;20058;-55
2022/03/29 03:20:04;;;;;;;27.52;17.83;;;;;;;9.87;64.32;100142.41;5013894;28;20049;-50
2022/03/29 03:22:33;;;;;;;24.02;17.95;;;;;;;9.86;63.96;100149.94;5000801;28;20049;-56
2022/03/29 03:25:01;;;;;;;28.17;19.73;;;;;;;9.86;63.80;100147.16;4995304;28;20061;-52
2022/03/29 03:27:29;;;;;;;28.50;20.05;;;;;;;9.86;64.68;100154.69;5009309;28;20058;-54
2022/03/29 03:29:56;;;;;;;25.75;19.58;;;;;;;9.90;64.16;100150.94;5009091;28;20050;-51
2022/03/29 03:32:24;;;;;;;25.35;17.25;;;;;;;9.92;63.67;100139.50;5014628;28;20475;-50
2022/03/29 03:34:52;;;;;;;28.90;19.45;;;;;;;9.92;64.22;100137.53;5014112;28;20053;-50
2022/03/29 03:37:20;;;;;;;30.58;21.65;;;;;;;9.96;63.86;100132.97;5014099;28;20100;-52
2022/03/29 03:39:47;;;;;;;29.42;19.67;;;;;;;9.95;64.37;100134.13;5014633;28;20054;-50
2022/03/29 03:42:15;;;;;;;27.92;19.27;;;;;;;9.95;64.37;100136.06;5014198;28;20418;-51
2022/03/29 03:44:42;;;;;;;27.75;19.10;;;;;;;9.94;64.39;100140.81;5014406;28;20388;-52
2022/03/29 03:47:10;;;;;;;29.55;20.48;;;;;;;9.92;64.07;100137.53;5012482;28;20058;-50
2022/03/29 03:49:38;;;;;;;26.48;18.05;;;;;;;9.93;64.07;100139.19;5013940;28;20052;-51
2022/03/29 03:52:08;;;;;;;29.00;19.48;;;;;;;9.91;64.04;100132.28;5014042;28;20064;-50
2022/03/29 03:54:37;;;;;;;27.73;19.00;;;;;;;9.89;63.77;100126.22;5013689;28;20054;-52
2022/03/29 03:57:05;;;;;;;26.65;19.60;;;;;;;9.84;64.05;100129.94;5014334;28;20054;-51
2022/03/29 03:59:33;;;;;;;29.88;19.85;;;;;;;9.83;64.27;100119.16;5013377;28;20479;-54
2022/03/29 04:02:01;;;;;;;31.10;21.38;;;;;;;9.83;64.63;100125.53;5010301;28;20054;-50
2022/03/29 04:04:28;;;;;;;32.67;22.35;;;;;;;9.81;64.56;100110.31;5012792;28;20045;-53
2022/03/29 04:06:56;;;;;;;33.00;22.52;;;;;;;9.75;64.39;100110.44;5007589;28;20050;-53
2022/03/29 04:09:27;;;;;;;36.00;23.83;;;;;;;9.75;64.58;100104.88;5009994;28;20054;-50
2022/03/29 04:11:55;;;;;;;29.63;21.58;;;;;;;9.70;64.53;100102.22;5014246;28;20408;-52
2022/03/29 04:14:23;;;;;;;32.72;22.02;;;;;;;9.70;64.43;100102.22;5000145;28;20058;-52
2022/03/29 04:16:50;;;;;;;31.55;23.30;;;;;;;9.67;64.80;100102.84;5011373;28;20053;-52
2022/03/29 04:19:17;;;;;;;33.15;23.80;;;;;;;9.66;64.56;100089.25;5009053;28;20046;-48
2022/03/29 04:21:45;;;;;;;31.83;22.05;;;;;;;9.65;64.82;100093.19;5012501;28;20056;-49
2022/03/29 04:24:12;;;;;;;35.75;23.85;;;;;;;9.61;65.03;100094.97;4998377;28;20054;-52
2022/03/29 04:26:40;;;;;;;31.92;23.63;;;;;;;9.59;64.84;100097.25;5013506;28;20057;-48
2022/03/29 04:29:08;;;;;;;33.58;24.13;;;;;;;9.55;64.96;100100.66;5009262;28;20050;-49
2022/03/29 04:31:36;;;;;;;35.33;25.17;;;;;;;9.53;65.44;100096.53;5005688;28;20065;-51
2022/03/29 04:34:05;;;;;;;32.85;24.35;;;;;;;9.51;65.29;100093.25;5012768;28;20057;-50
2022/03/29 04:36:32;;;;;;;29.75;20.88;;;;;;;9.48;65.85;100099.47;5010177;28;20054;-50
2022/03/29 04:39:00;;;;;;;33.40;23.23;;;;;;;9.44;65.95;100093.69;5009518;28;20410;-49
2022/03/29 04:41:28;;;;;;;36.25;24.70;;;;;;;9.43;65.99;100086.50;5012345;28;20061;-50
2022/03/29 04:43:55;;;;;;;30.85;23.55;;;;;;;9.42;66.00;100090.41;5006820;28;20058;-52
2022/03/29 04:46:24;;;;;;;35.58;24.10;;;;;;;9.42;65.34;100089.59;4993682;28;20053;-50
2022/03/29 04:48:52;;;;;;;37.08;24.95;;;;;;;9.40;65.86;100091.88;5011222;28;20505;-51
2022/03/29 04:51:20;;;;;;;36.88;24.25;;;;;;;9.33;65.54;100090.34;5011718;28;20492;-52
2022/03/29 04:53:47;;;;;;;32.90;21.85;;;;;;;9.30;65.32;100088.22;5010650;28;20053;-50
2022/03/29 04:56:15;;;;;;;32.42;23.20;;;;;;;9.27;65.32;100086.06;4996139;28;20447;-48
2022/03/29 04:58:42;;;;;;;31.23;22.77;;;;;;;9.24;65.34;100086.69;4998810;28;20041;-52
2022/03/29 05:01:12;;;;;;;31.67;23.02;;;;;;;9.18;65.22;100085.19;5010559;28;20061;-51
2022/03/29 05:03:40;;;;;;;;;;;;;;;9.11;65.28;100077.28;5011563;28;20065;-52
2022/03/29 05:06:08;;;;;;;30.50;22.33;;;;;;;9.08;64.76;100072.34;5011576;28;19929;-49
2022/03/29 05:08:35;;;;;;;30.73;23.15;;;;;;;9.04;64.64;100067.72;5011465;28;20053;-52
2022/03/29 05:11:02;;;;;;;30.75;23.23;;;;;;;9.01;64.96;100063.63;5012660;28;20050;-49
2022/03/29 05:13:30;;;;;;;33.33;23.98;;;;;;;8.96;65.32;100054.59;5010410;28;20517;-49
2022/03/29 05:15:57;;;;;;;32.15;24.70;;;;;;;8.94;66.17;100046.56;5012128;28;20053;-48
2022/03/29 05:18:25;;;;;;;33.92;24.27;;;;;;;8.93;66.11;100051.31;4993129;28;20403;-49
2022/03/29 05:20:53;;;;;;;38.97;26.95;;;;;;;8.94;66.39;100057.69;5006528;28;20402;-52
2022/03/29 05:23:22;;;;;;;36.05;26.50;;;;;;;8.91;66.87;100050.78;5009468;28;20058;-51
2022/03/29 05:25:50;;;;;;;38.42;27.02;;;;;;;8.91;66.95;100047.19;5012102;28;20057;-50
2022/03/29 05:28:17;;;;;;;38.25;27.77;;;;;;;8.90;66.62;100051.94;5001779;28;20061;-49
2022/03/29 05:30:45;;;;;;;38.38;27.08;;;;;;;8.82;66.92;100052.69;4994501;28;20057;-51
2022/03/29 05:33:15;;;;;;;37.15;26.33;;;;;;;8.81;66.93;100051.03;4993333;28;20070;-50
2022/03/29 05:35:43;;;;;;;35.28;25.75;;;;;;;8.83;66.56;100059.88;4997755;28;20406;-53
2022/03/29 05:38:12;;;;;;;38.58;27.83;;;;;;;8.85;66.71;100045.69;5011111;28;20058;-52
2022/03/29 05:40:39;;;;;;;36.28;25.23;;;;;;;8.88;66.65;100054.22;5009416;28;20050;-50
2022/03/29 05:43:10;;;;;;;38.13;26.63;;;;;;;8.91;66.54;100059.13;5010593;28;20514;-51
2022/03/29 05:45:38;;;;;;;35.05;25.80;;;;;;;8.91;66.63;100059.13;5011733;28;20506;-53
2022/03/29 05:50:52;;;;;;;35.58;25.45;;;;;;;8.96;66.88;100057.38;5016378;28;20077;-51
2022/03/29 05:53:21;;;;;;;35.75;25.85;;;;;;;9.00;66.47;100055.59;5005765;28;20085;-51
2022/03/29 05:55:49;;;;;;;39.08;28.00;;;;;;;9.04;66.60;100051.06;5011867;28;20061;-51
2022/03/29 05:58:17;;;;;;;36.97;27.40;;;;;;;9.10;67.12;100056.19;5012135;28;20503;-50
2022/03/29 06:00:45;;;;;;;41.67;28.50;;;;;;;9.19;66.66;100052.66;5011322;28;20050;-50
2022/03/29 06:03:12;;;;;;;40.67;28.15;;;;;;;9.29;66.31;100052.41;5011086;28;20073;-52
2022/03/29 06:05:42;;;;;;;38.90;28.08;;;;;;;9.38;66.13;100049.69;5012183;28;20080;-53
2022/03/29 06:08:11;;;;;;;41.50;29.17;;;;;;;9.46;66.05;100052.50;5003437;28;20056;-52
2022/03/29 06:10:39;;;;;;;41.97;30.45;;;;;;;9.54;65.84;100050.94;5008757;28;20053;-52
2022/03/29 06:13:08;;;;;;;45.65;30.30;;;;;;;9.65;65.42;100048.69;5007759;28;20058;-50
2022/03/29 06:15:36;;;;;;;39.72;28.98;;;;;;;9.75;65.83;100056.78;5000378;28;20061;-50
2022/03/29 06:18:04;;;;;;;45.75;30.25;;;;;;;9.90;65.17;100049.97;5002323;28;20379;-51
2022/03/29 06:20:32;;;;;;;42.03;30.85;;;;;;;9.96;65.02;100045.91;5011228;28;20046;-49
2022/03/29 06:22:59;;;;;;;44.05;30.63;;;;;;;10.01;64.89;100054.09;5005719;28;20482;-48
2022/03/29 06:25:28;;;;;;;40.58;28.40;;;;;;;10.11;64.67;100055.78;5007482;28;20057;-51
2022/03/29 06:27:57;;;;;;;44.53;29.83;;;;;;;10.19;64.48;100056.97;5009371;28;20050;-48
2022/03/29 06:30:25;;;;;;;38.88;28.92;;;;;;;10.25;64.16;100052.91;4997435;28;20058;-50
2022/03/29 06:32:54;;;;;;;42.60;29.25;;;;;;;10.26;64.23;100046.19;5010293;28;20058;-51
2022/03/29 06:35:23;;;;;;;39.47;28.73;;;;;;;10.38;63.91;100062.31;5008384;28;20054;-49
2022/03/29 06:37:51;;;;;;;42.67;29.33;;;;;;;10.39;63.62;100050.81;5007232;28;20504;-48
2022/03/29 06:40:20;;;;;;;51.28;30.95;;;;;;;10.30;63.77;100048.03;5007590;28;20050;-49
2022/03/29 06:42:48;;;;;;;41.80;30.85;;;;;;;10.49;63.17;100047.75;5009039;28;20057;-52
2022/03/29 06:45:17;;;;;;;44.92;29.40;;;;;;;10.30;63.69;100047.19;5009702;28;20064;-51
2022/03/29 06:47:44;;;;;;;40.63;29.33;;;;;;;10.38;63.55;100048.38;5010140;28;20054;-48
2022/03/29 06:50:12;;;;;;;41.92;28.83;;;;;;;10.46;63.40;100050.38;5009717;28;20701;-48
2022/03/29 06:52:42;;;;;;;38.03;28.00;;;;;;;10.28;63.81;100036.34;5009781;28;20054;-48
2022/03/29 06:55:12;;;;;;;41.55;29.02;;;;;;;10.46;63.67;100042.84;5010607;28;20065;-50
2022/03/29 06:57:39;;;;;;;45.70;31.73;;;;;;;10.63;63.25;100044.00;5011006;28;20054;-49
2022/03/29 07:00:09;;;;;;;39.63;29.60;;;;;;;10.70;63.18;100039.59;5010665;28;20057;-49
2022/03/29 07:02:38;;;;;;;43.53;29.30;;;;;;;10.82;62.50;100038.94;5012855;28;20065;-49
2022/03/29 07:05:07;;;;;;;46.13;31.17;;;;;;;10.85;62.36;100043.03;5012870;28;20061;-48
2022/03/29 07:07:34;;;;;;;42.17;29.98;;;;;;;10.97;62.17;100038.44;5012754;28;20054;-47
2022/03/29 07:12:48;;;;;;;46.22;31.20;;;;;;;11.07;61.44;100040.09;5014296;28;20483;-48
2022/03/29 07:15:15;;;;;;;44.13;29.50;;;;;;;11.18;61.17;100037.78;5013299;28;20057;-48
2022/03/29 07:17:45;;;;;;;40.72;30.80;;;;;;;11.25;61.30;100052.03;5014728;28;20061;-48
2022/03/29 07:20:13;;;;;;;40.92;30.40;;;;;;;11.32;61.09;100048.78;5012087;28;20046;-52
2022/03/29 07:22:40;;;;;;;44.38;32.92;;;;;;;11.37;60.69;100052.19;5013730;28;20054;-49
2022/03/29 07:25:08;;;;;;;42.05;30.00;;;;;;;11.44;60.70;100059.25;5010830;28;20057;-48
2022/03/29 07:27:36;;;;;;;38.00;29.00;;;;;;;11.52;60.47;100056.44;5012865;28;20054;-48
2022/03/29 07:30:05;;;;;;;45.40;31.80;;;;;;;11.54;60.23;100054.13;5011829;28;20057;-50
2022/03/29 07:32:32;;;;;;;42.67;31.80;;;;;;;11.61;60.28;100055.59;4993554;28;20062;-49
2022/03/29 07:35:01;;;;;;;45.20;30.90;;;;;;;11.69;60.23;100057.56;5004738;28;20053;-48
2022/03/29 07:37:29;;;;;;;43.13;32.67;;;;;;;11.74;59.61;100060.19;5000776;28;20757;-49
2022/03/29 07:39:56;;;;;;;43.88;31.83;;;;;;;11.82;59.63;100052.91;5001211;28;20046;-52
2022/03/29 07:42:23;;;;;;;45.72;32.15;;;;;;;11.91;59.21;100054.56;5003652;28;20050;-48
2022/03/29 07:44:51;;;;;;;42.22;30.58;;;;;;;11.93;59.10;100063.44;5011685;28;20406;-49
2022/03/29 07:47:19;;;;;;;45.20;32.53;;;;;;;11.98;59.01;100054.03;5003704;28;20116;-51
2022/03/29 07:49:46;;;;;;;43.63;32.10;;;;;;;12.01;59.01;100058.13;5010304;28;20050;-48
2022/03/29 07:52:15;;;;;;;43.00;30.23;;;;;;;12.02;58.53;100063.38;5011611;28;20402;-50
2022/03/29 07:54:45;;;;;;;47.15;33.60;;;;;;;11.95;58.77;100063.91;5013243;28;20395;-49
2022/03/29 07:57:13;;;;;;;45.28;34.35;;;;;;;11.92;59.54;100069.34;5011994;28;20418;-49
2022/03/29 07:59:40;;;;;;;48.95;34.42;;;;;;;11.93;58.95;100068.19;5007146;28;20410;-53
2022/03/29 08:02:09;;;;;;;50.08;35.42;;;;;;;11.90;59.12;100069.66;5012927;28;20054;-50
2022/03/29 08:04:36;;;;;;;45.53;33.15;;;;;;;11.91;59.83;100065.72;5011845;28;20049;-48
2022/03/29 08:07:04;;;;;;;53.63;37.03;;;;;;;11.96;58.99;100059.97;4996848;28;20054;-48
2022/03/29 08:09:33;;;;;;;47.70;35.13;;;;;;;11.92;59.45;100061.78;5011213;28;20060;-49
2022/03/29 08:12:00;;;;;;;47.60;33.00;;;;;;;12.03;59.09;100062.22;5008281;28;21090;-48
2022/03/29 08:14:32;;;;;;;47.08;33.63;;;;;;;11.97;59.13;100060.81;5009091;28;20492;-48
2022/03/29 08:16:59;;;;;;;48.30;34.13;;;;;;;11.96;59.08;100061.94;5008120;28;20049;-51
2022/03/29 08:19:27;;;;;;;46.33;33.40;;;;;;;11.95;59.02;100063.09;5006551;28;20054;-48
2022/03/29 08:21:54;;;;;;;44.38;32.78;;;;;;;11.95;59.18;100065.91;5006190;28;20054;-49
2022/03/29 08:24:25;;;;;;;47.25;32.95;;;;;;;11.98;58.70;100066.03;5006528;28;20057;-52
2022/03/29 08:26:55;;;;;;;46.05;33.25;;;;;;;12.02;58.76;100057.00;5005874;28;20453;-48
2022/03/29 08:29:23;;;;;;;46.30;33.45;;;;;;;12.05;59.03;100053.53;5009921;28;20052;-48
2022/03/29 08:31:52;;;;;;;45.10;33.10;;;;;;;12.14;59.15;100041.19;5003454;28;20392;-52
2022/03/29 08:34:20;;;;;;;49.28;35.20;;;;;;;12.29;58.64;100042.59;5000178;28;20057;-51
2022/03/29 08:36:49;;;;;;;46.85;32.70;;;;;;;12.41;58.24;100055.84;5011627;28;20065;-49
2022/03/29 08:39:17;;;;;;;46.80;34.07;;;;;;;12.45;57.89;100050.38;5005324;28;20046;-48
2022/03/29 08:41:47;;;;;;;47.28;33.22;;;;;;;12.51;57.66;100047.03;5008333;28;20053;-51
2022/03/29 08:44:16;;;;;;;47.65;34.50;;;;;;;12.56;57.44;100040.47;5011451;28;20053;-49
2022/03/29 08:46:46;;;;;;;46.25;33.65;;;;;;;12.47;57.75;100043.28;5011579;28;20049;-51
2022/03/29 08:49:16;;;;;;;43.03;32.05;;;;;;;12.48;57.92;100044.13;5010658;28;20046;-50
2022/03/29 08:51:44;;;;;;;49.25;33.67;;;;;;;12.61;57.14;100031.06;5011308;28;20056;-51
2022/03/29 08:54:12;;;;;;;47.42;33.13;;;;;;;12.53;57.55;100027.97;5011789;28;20407;-48
2022/03/29 08:56:41;;;;;;;47.80;34.67;;;;;;;12.63;57.52;100031.53;5010032;28;20077;-48
2022/03/29 08:59:08;;;;;;;45.10;33.17;;;;;;;12.72;57.01;100032.28;5011607;28;20411;-49
2022/03/29 09:01:37;;;;;;;44.28;32.10;;;;;;;12.72;56.76;100013.53;5010918;28;20067;-49
2022/03/29 09:04:12;;;;;;;57.42;33.28;;;;;;;12.72;57.31;100009.94;5002560;28;20065;-48
2022/03/29 09:07:02;;;;;;;46.00;33.42;;;;;;;12.88;56.91;100010.97;5010451;28;20058;-48
2022/03/29 09:09:30;;;;;;;51.58;35.10;;;;;;;13.03;56.27;100003.13;5009108;28;20072;-51
2022/03/29 09:12:00;;;;;;;47.53;32.20;;;;;;;13.10;55.98;100015.38;5006646;28;20073;-51
2022/03/29 09:14:29;;;;;;;42.58;30.48;;;;;;;13.19;56.07;100007.72;5011051;28;20423;-48
2022/03/29 09:16:59;;;;;;;45.33;32.38;;;;;;;13.19;56.06;100023.69;5010464;28;20054;-52
2022/03/29 09:19:47;;;;;;;46.60;32.17;;;;;;;13.33;55.47;100004.66;5011279;28;20053;-51
2022/03/29 09:22:35;;;;;;;47.42;33.72;;;;;;;13.29;55.43;100008.47;5003904;28;20493;-49
2022/03/29 09:25:03;;;;;;;49.13;36.58;;;;;;;13.30;55.24;100010.13;5010620;28;20058;-49
2022/03/29 09:27:30;;;;;;;43.97;32.78;;;;;;;13.46;55.05;100008.31;5005800;28;20057;-51
2022/03/29 09:30:08;;;;;;;41.05;30.35;;;;;;;13.61;54.72;100012.44;5009557;28;20081;-51
2022/03/29 09:32:51;;;;;;;41.67;30.30;;;;;;;13.61;54.79;100012.44;5004527;28;20068;-51
2022/03/29 09:35:19;;;;;;;46.20;34.90;;;;;;;13.65;54.26;100006.94;5006805;28;20137;-50
2022/03/29 09:37:46;;;;;;;49.35;34.42;;;;;;;13.58;54.61;100007.53;5008260;28;20073;-49
2022/03/29 09:40:14;;;;;;;43.08;33.03;;;;;;;13.60;54.54;100008.00;5007567;28;20065;-51
2022/03/29 09:42:42;;;;;;;48.63;34.50;;;;;;;13.67;54.46;100002.66;5007186;28;20065;-50
2022/03/29 09:45:10;;;;;;;42.65;31.40;;;;;;;13.66;53.99;100003.00;4997811;28;20062;-49
2022/03/29 09:47:39;;;;;;;45.80;32.72;;;;;;;13.53;54.53;99993.75;5008806;28;20097;-51
2022/03/29 09:50:09;;;;;;;46.97;35.08;;;;;;;13.51;55.00;100002.50;5006456;28;20056;-49
2022/03/29 09:52:39;;;;;;;43.13;32.00;;;;;;;13.49;54.75;99992.81;5008499;28;20495;-52
2022/03/29 09:55:14;;;;;;;44.92;33.17;;;;;;;13.46;54.52;99990.69;5008543;28;20506;-49
2022/03/29 09:57:45;;;;;;;41.50;30.98;;;;;;;13.57;54.91;99978.72;5010638;28;20058;-48
2022/03/29 10:00:15;;;;;;;42.65;32.22;;;;;;;13.64;54.24;99971.75;5010022;28;20066;-50
2022/03/29 10:02:46;;;;;;;39.10;29.98;;;;;;;13.76;54.40;99980.97;5010448;28;20054;-49
2022/03/29 10:05:16;;;;;;;45.80;32.15;;;;;;;13.78;53.98;99978.63;5008734;28;20050;-50
2022/03/29 10:07:48;;;;;;;43.50;32.00;;;;;;;13.70;54.37;99979.56;5007768;28;20531;-51
2022/03/29 10:10:15;;;;;;;41.50;31.25;;;;;;;13.71;54.19;99978.41;5005323;28;20057;-50
2022/03/29 10:12:43;;;;;;;42.22;31.65;;;;;;;13.64;54.03;99966.97;5006868;28;20057;-51
2022/03/29 10:15:12;;;;;;;45.38;34.45;;;;;;;13.65;54.05;99970.56;5009529;28;20387;-51
2022/03/29 10:17:41;;;;;;;43.58;32.60;;;;;;;13.78;53.98;99967.44;4997818;28;20470;-52
2022/03/29 10:20:13;;;;;;;41.47;29.98;;;;;;;13.84;53.96;99964.41;5000365;28;20061;-49
2022/03/29 10:22:41;;;;;;;37.90;29.90;;;;;;;13.92;53.61;99981.13;5007157;28;20393;-48
2022/03/29 10:25:09;;;;;;;40.40;32.95;;;;;;;13.97;53.29;99977.25;4994998;28;20049;-50
2022/03/29 10:27:36;;;;;;;42.40;31.05;;;;;;;14.01;53.11;99973.41;4998103;28;20061;-52
2022/03/29 10:30:04;;;;;;;37.70;30.33;;;;;;;14.12;52.85;99970.13;5009342;28;20418;-50
2022/03/29 10:32:32;;;;;;;37.72;29.65;;;;;;;14.12;52.81;99965.34;5009535;28;20060;-48
2022/03/29 10:35:07;;;;;;;38.40;30.30;;;;;;;14.22;52.76;99964.06;5009546;28;20057;-50
2022/03/29 10:37:59;;;;;;;38.58;30.60;;;;;;;14.34;52.49;99963.22;5011734;28;20065;-50
2022/03/29 10:40:38;;;;;;;42.88;31.23;;;;;;;14.39;52.29;99963.81;5013439;28;20053;-50
2022/03/29 10:43:27;;;;;;;40.58;31.27;;;;;;;14.32;52.06;99962.75;5011439;28;20057;-50
2022/03/29 10:45:55;;;;;;;38.53;30.08;;;;;;;14.18;52.28;99961.16;5011708;28;20058;-51
2022/03/29 10:48:22;;;;;;;37.70;30.15;;;;;;;14.15;52.42;99952.63;4999277;28;20053;-47
2022/03/29 10:51:00;;;;;;;40.10;30.02;;;;;;;14.14;52.18;99946.22;5008767;28;20053;-51
2022/03/29 10:53:32;;;;;;;38.65;30.27;;;;;;;13.99;52.65;99938.53;4996678;28;20053;-47
2022/03/29 10:56:22;;;;;;;40.25;31.27;;;;;;;14.12;52.61;99942.94;5002252;28;20058;-51
2022/03/29 10:59:14;;;;;;;38.40;29.73;;;;;;;14.21;52.17;99934.41;5013088;28;20077;-48
2022/03/29 11:01:42;;;;;;;39.63;30.35;;;;;;;14.15;52.22;99941.41;4994771;28;20057;-48
2022/03/29 11:04:17;;;;;;;39.90;31.83;;;;;;;14.19;52.17;99925.53;5008498;28;20058;-48
2022/03/29 11:07:09;;;;;;;37.85;30.15;;;;;;;14.27;52.10;99926.59;5012436;28;20058;-51
2022/03/29 11:09:41;;;;;;;37.90;28.55;;;;;;;14.30;51.85;99920.25;5009058;28;20462;-49
2022/03/29 11:12:52;;;;;;;34.97;28.02;;;;;;;14.53;51.48;99912.16;5012989;28;20049;-47
2022/03/29 11:15:47;;;;;;;34.70;27.48;;;;;;;14.82;50.60;99903.47;5005186;28;20054;-53
2022/03/29 11:18:40;;;;;;;35.78;27.92;;;;;;;14.93;50.66;99897.31;5011707;28;20050;-48
2022/03/29 11:21:09;;;;;;;33.85;27.73;;;;;;;15.31;49.68;99905.19;4997989;28;20049;-50
2022/03/29 11:23:38;;;;;;;37.90;27.80;;;;;;;15.37;48.78;99898.13;5013247;28;20061;-48
2022/03/29 11:26:10;;;;;;;34.58;27.67;;;;;;;15.78;48.04;99893.16;5002909;28;20518;-50
2022/03/29 11:28:38;;;;;;;32.33;26.23;;;;;;;16.21;47.09;99905.41;5010095;28;20049;-49
2022/03/29 11:31:05;;;;;;;32.53;26.92;;;;;;;16.60;45.99;99899.81;5012604;28;20061;-53